»·PEaware :: N517GA CYHT-BD7

N517GA :: CYHT-BD7

FLIGHT INFORMATION

Flight Status: Arrived
Operator: Privately registered:
United States
More flights under this callsign
Pilot: John H. (7647)
Aircraft: DEHAVILLAND DH-6 TWIN OTTER
(DHC6)
More flights by this aircraft type
Origin: CYHT Haines Junction
Canada
Destination: BD7 Muddy Lake
Canada
More flights between these airports :: More routes between these airports
Route: ARIUS 3P
File this flight plan on PilotEdge
Remarks:
Altitude:
(Current/Filed)
7,500ft
Speed:
(Current/Filed)
145kts
Departed: 03-Jun-16 07:00 PM
Arrived: 03-Jun-16 08:48 PM
Distance/Time
Traveled:
223nm/1:48
Distance/Time
To Go:
Arrived

Flight Plot

Page will automatically refresh every two minutes.


Map Options




Map Legend


Flown Route
Filed Route
Departure Airport
Arrival Airport
Navaid (VOR, NDB)
Fix

Horizontal Profiles

Position Reports

Time Latitude Longitude Heading Altitude Ground
Speed
03-Jun-16 18:36 60.788596 -137.527352 336 2156ft 0kts
03-Jun-16 18:37 60.788596 -137.527352 336 2156ft 0kts
03-Jun-16 18:38 60.788596 -137.527352 336 2156ft 0kts
03-Jun-16 18:39 60.788596 -137.527352 336 2156ft 0kts
03-Jun-16 18:40 60.788596 -137.527352 336 2156ft 0kts
03-Jun-16 18:41 60.788596 -137.527352 336 2156ft 0kts
03-Jun-16 18:42 60.788596 -137.527352 336 2156ft 0kts
03-Jun-16 18:43 60.788596 -137.527352 336 2156ft 0kts
03-Jun-16 18:44 60.788596 -137.527352 336 2156ft 0kts
03-Jun-16 18:45 60.788596 -137.527352 336 2156ft 0kts
03-Jun-16 18:46 60.788596 -137.527352 336 2156ft 0kts
03-Jun-16 18:47 60.788596 -137.527352 336 2156ft 0kts
03-Jun-16 18:48 60.788596 -137.527352 336 2156ft 0kts
03-Jun-16 18:49 60.788596 -137.527352 336 2156ft 0kts
03-Jun-16 18:50 60.788596 -137.527352 336 2156ft 0kts
03-Jun-16 18:51 60.788596 -137.527352 336 2156ft 0kts
03-Jun-16 18:52 58.192489 -132.314683 264 3161ft 0kts
03-Jun-16 18:52 60.788971 -137.527714 251 2162ft 0kts
03-Jun-16 18:53 60.788971 -137.527714 251 2161ft 0kts
03-Jun-16 18:54 60.788971 -137.527714 251 2162ft 0kts
03-Jun-16 18:55 60.788971 -137.527714 251 2162ft 0kts
03-Jun-16 18:56 60.788713 -137.529309 251 2162ft 39kts
03-Jun-16 18:57 60.777584 -137.549557 132 2974ft 120kts
03-Jun-16 18:58 60.759687 -137.493824 119 4415ft 120kts
03-Jun-16 18:59 60.743096 -137.435086 123 5768ft 122kts
03-Jun-16 19:00 60.725402 -137.377561 136 7033ft 120kts
03-Jun-16 19:01 60.701668 -137.326588 140 7530ft 153kts
03-Jun-16 19:02 60.675450 -137.269246 134 7530ft 157kts
03-Jun-16 19:03 60.647605 -137.200792 135 7541ft 155kts
03-Jun-16 19:04 60.619527 -137.138109 139 7559ft 151kts
03-Jun-16 19:05 60.591237 -137.078630 139 7588ft 142kts
03-Jun-16 19:06 60.563740 -137.021553 136 7620ft 141kts
03-Jun-16 19:07 60.537644 -136.963059 136 7621ft 141kts
03-Jun-16 19:08 60.511829 -136.904883 136 7613ft 142kts
03-Jun-16 19:09 60.485368 -136.845030 138 7596ft 142kts
03-Jun-16 19:10 60.458735 -136.785611 137 7585ft 142kts
03-Jun-16 19:11 60.432072 -136.726763 137 7602ft 141kts
03-Jun-16 19:12 60.405265 -136.668859 137 7621ft 141kts
03-Jun-16 19:13 60.378818 -136.612929 137 7639ft 140kts
03-Jun-16 19:14 60.351439 -136.556328 137 7657ft 140kts
03-Jun-16 19:15 60.324606 -136.499200 136 7654ft 141kts
03-Jun-16 19:16 60.297799 -136.440791 136 7637ft 142kts
03-Jun-16 19:17 60.271662 -136.382887 136 7626ft 141kts
03-Jun-16 19:18 60.245296 -136.325254 138 7624ft 141kts
03-Jun-16 19:19 60.218593 -136.269227 137 7639ft 141kts
03-Jun-16 19:20 60.191773 -136.210877 137 7651ft 142kts
03-Jun-16 19:22 60.164943 -136.152578 137 7664ft 144kts
03-Jun-16 19:23 60.137476 -136.093524 139 7665ft 146kts
03-Jun-16 19:24 60.108697 -136.035355 140 7663ft 147kts
03-Jun-16 19:25 60.080639 -135.975880 135 7662ft 148kts
03-Jun-16 19:26 60.053853 -135.913076 135 7663ft 148kts
03-Jun-16 19:27 60.030674 -135.863412 140 7663ft 147kts
03-Jun-16 19:28 60.001965 -135.806692 140 7663ft 147kts
03-Jun-16 19:29 59.973242 -135.748229 139 7663ft 147kts
03-Jun-16 19:30 59.944525 -135.689514 139 7663ft 147kts
03-Jun-16 19:31 59.916027 -135.631300 139 7663ft 147kts
03-Jun-16 19:32 59.887645 -135.573380 139 7666ft 147kts
03-Jun-16 19:33 59.859054 -135.515114 139 7666ft 148kts
03-Jun-16 19:34 59.830226 -135.456447 139 7666ft 148kts
03-Jun-16 19:35 59.801446 -135.397920 139 7666ft 148kts
03-Jun-16 19:36 59.772984 -135.340086 139 7665ft 147kts
03-Jun-16 19:37 59.744954 -135.280285 138 7665ft 148kts
03-Jun-16 19:38 59.717094 -135.220366 138 7665ft 148kts
03-Jun-16 19:39 59.689325 -135.160699 138 7665ft 148kts
03-Jun-16 19:40 59.661474 -135.100907 138 7665ft 148kts
03-Jun-16 19:41 59.633335 -135.042196 138 7665ft 147kts
03-Jun-16 19:42 59.605169 -134.984139 138 7665ft 148kts
03-Jun-16 19:43 59.576757 -134.925793 139 7664ft 147kts
03-Jun-16 19:44 59.549089 -134.866349 137 7665ft 148kts
03-Jun-16 19:45 59.521337 -134.806236 137 7664ft 148kts
03-Jun-16 19:46 59.493536 -134.746600 137 7664ft 148kts
03-Jun-16 19:47 59.465708 -134.687391 137 7664ft 148kts
03-Jun-16 19:48 59.437742 -134.627928 137 7664ft 148kts
03-Jun-16 19:49 59.409854 -134.568673 137 7664ft 148kts
03-Jun-16 19:50 59.381906 -134.509329 137 7664ft 148kts
03-Jun-16 19:50 59.358650 -134.459982 137 7664ft 148kts
03-Jun-16 19:51 59.330901 -134.400844 137 7674ft 146kts
03-Jun-16 19:52 59.303989 -134.342908 139 7693ft 141kts
03-Jun-16 19:54 59.273494 -134.279535 138 7711ft 137kts
03-Jun-16 19:54 59.252061 -134.234631 138 7719ft 135kts
03-Jun-16 19:55 59.226537 -134.181561 138 7725ft 132kts
03-Jun-16 19:56 59.201408 -134.129729 138 7727ft 129kts
03-Jun-16 19:57 59.176960 -134.078850 138 7726ft 128kts
03-Jun-16 19:58 59.152709 -134.028327 138 7727ft 127kts
03-Jun-16 19:59 59.128409 -133.977650 138 7726ft 128kts
03-Jun-16 20:00 59.103756 -133.926455 138 7727ft 129kts
03-Jun-16 20:01 59.080765 -133.879247 139 7748ft 126kts
03-Jun-16 20:02 59.056410 -133.830361 139 7753ft 125kts
03-Jun-16 20:03 59.032487 -133.782396 139 7753ft 121kts
03-Jun-16 20:04 59.009414 -133.735694 139 7753ft 118kts
03-Jun-16 20:05 58.987198 -133.690407 139 7708ft 111kts
03-Jun-16 20:06 58.966720 -133.648064 139 7752ft 105kts
03-Jun-16 20:07 58.947426 -133.607677 137 7752ft 99kts
03-Jun-16 20:08 58.929514 -133.571009 140 7744ft 89kts
03-Jun-16 20:09 58.913375 -133.537704 140 7734ft 79kts
03-Jun-16 20:10 58.899670 -133.509046 142 7717ft 65kts
03-Jun-16 20:11 58.889506 -133.486866 141 7201ft 62kts
03-Jun-16 20:12 58.880433 -133.467953 143 5946ft 42kts
03-Jun-16 20:13 58.871552 -133.452299 140 4627ft 47kts
03-Jun-16 20:14 58.863731 -133.439839 187 3527ft 54kts
03-Jun-16 20:15 58.873870 -133.444926 348 3576ft 108kts
03-Jun-16 20:16 58.875150 -133.417799 153 4740ft 94kts
03-Jun-16 20:17 58.857616 -133.381417 157 5855ft 100kts
03-Jun-16 20:18 58.832172 -133.350253 156 6770ft 118kts
03-Jun-16 20:20 58.806060 -133.314631 138 7729ft 117kts
03-Jun-16 20:21 58.782569 -133.266713 138 7758ft 133kts
03-Jun-16 20:22 58.757089 -133.215017 139 7757ft 133kts
03-Jun-16 20:23 58.731574 -133.163213 138 7757ft 133kts
03-Jun-16 20:24 58.705887 -133.111129 139 7756ft 134kts
03-Jun-16 20:25 58.680349 -133.059432 138 7755ft 133kts
03-Jun-16 20:26 58.661578 -133.021402 138 7755ft 133kts
03-Jun-16 20:27 58.636123 -132.969718 138 7756ft 133kts
03-Jun-16 20:28 58.610457 -132.918248 138 7770ft 133kts
03-Jun-16 20:29 58.584422 -132.867851 138 7799ft 133kts
03-Jun-16 20:30 58.558939 -132.818438 135 7823ft 138kts
03-Jun-16 20:31 58.528768 -132.760481 136 7878ft 158kts
03-Jun-16 20:32 58.498170 -132.700904 136 7902ft 157kts
03-Jun-16 20:33 58.467621 -132.641293 136 7903ft 157kts
03-Jun-16 20:34 58.437053 -132.581711 136 7903ft 157kts
03-Jun-16 20:35 58.406475 -132.522277 135 7903ft 157kts
03-Jun-16 20:36 58.380359 -132.471476 135 7900ft 136kts
03-Jun-16 20:37 58.354335 -132.420501 135 7901ft 133kts
03-Jun-16 20:38 58.330261 -132.373276 135 7903ft 132kts
03-Jun-16 20:39 58.304979 -132.323643 136 7900ft 127kts
03-Jun-16 20:40 58.281191 -132.276770 136 7901ft 121kts
03-Jun-16 20:41 58.259799 -132.234660 136 7902ft 119kts
03-Jun-16 20:42 58.235779 -132.193019 173 7882ft 112kts
03-Jun-16 20:43 58.216943 -132.225213 228 6290ft 119kts
03-Jun-16 20:44 58.199998 -132.261822 245 4271ft 91kts
03-Jun-16 20:45 58.193610 -132.294384 259 3478ft 68kts
03-Jun-16 20:46 58.192249 -132.319807 260 3161ft 17kts
03-Jun-16 20:47 58.190239 -132.320838 122 3161ft 0kts

Navigation Log

Ident Type
Flight plan parsing failed, navigation log unavailable